createdAt,value
2018-12-03T00:00:44.978Z,1026.16
2018-12-03T00:01:45.550Z,1026.09
2018-12-03T00:02:46.128Z,1026.06
2018-12-03T00:03:46.702Z,1026.07
2018-12-03T00:04:47.278Z,1026.05
2018-12-03T00:05:47.853Z,1025.99
2018-12-03T00:06:48.523Z,1026.08
2018-12-03T00:07:49.099Z,1026.06
2018-12-03T00:08:49.678Z,1026.10
2018-12-03T00:09:50.304Z,1026.11
2018-12-03T00:10:50.880Z,1026.07
2018-12-03T00:11:51.453Z,1026.13
2018-12-03T00:12:52.028Z,1026.06
2018-12-03T00:13:52.653Z,1026.08
2018-12-03T00:14:53.228Z,1026.06
2018-12-03T00:15:53.803Z,1026.02
2018-12-03T00:16:54.376Z,1026.09
2018-12-03T00:17:54.953Z,1026.11
2018-12-03T00:18:55.529Z,1026.00
2018-12-03T00:19:56.150Z,1026.14
2018-12-03T00:21:41.242Z,1026.05
2018-12-03T00:22:41.816Z,1026.07
2018-12-03T00:23:42.393Z,1026.01
2018-12-03T00:24:42.973Z,1025.99
2018-12-03T00:25:43.550Z,1025.97
2018-12-03T00:26:44.124Z,1026.01
2018-12-03T00:27:44.699Z,1026.03
2018-12-03T00:28:45.475Z,1026.00
2018-12-03T00:29:46.100Z,1025.97
2018-12-03T00:30:46.726Z,1026.05
2018-12-03T00:31:47.352Z,1026.05
2018-12-03T00:32:47.926Z,1026.00
2018-12-03T00:33:48.606Z,1026.02
2018-12-03T00:34:49.180Z,1025.97
2018-12-03T00:35:49.753Z,1026.09
2018-12-03T00:36:50.331Z,1026.19
2018-12-03T00:37:50.907Z,1026.08
2018-12-03T00:38:51.484Z,1026.15
2018-12-03T00:39:52.062Z,1026.09
2018-12-03T00:40:52.637Z,1026.20
2018-12-03T00:41:53.211Z,1026.15
2018-12-03T00:43:38.251Z,1026.11
2018-12-03T00:44:38.827Z,1026.12
2018-12-03T00:45:39.401Z,1026.14
2018-12-03T00:46:39.977Z,1026.11
2018-12-03T00:47:40.551Z,1026.10
2018-12-03T00:48:41.126Z,1026.08
2018-12-03T00:49:41.751Z,1026.14
2018-12-03T00:51:43.885Z,1026.10
2018-12-03T00:52:44.448Z,1026.09
2018-12-03T00:53:45.067Z,1026.09
2018-12-03T00:54:45.631Z,1026.03
2018-12-03T00:57:01.618Z,1026.08
2018-12-03T00:58:02.237Z,1026.13
2018-12-03T01:01:51.505Z,1026.06
2018-12-03T01:02:52.071Z,1026.05
2018-12-03T01:03:52.640Z,1026.16
2018-12-03T01:04:53.208Z,1026.00
2018-12-03T01:05:53.778Z,1026.09
2018-12-03T01:06:54.345Z,1026.13
2018-12-03T01:07:54.966Z,1026.07
2018-12-03T01:08:55.532Z,1026.07
2018-12-03T01:09:56.102Z,1026.01
2018-12-03T01:10:56.670Z,1026.09
2018-12-03T01:11:57.287Z,1026.08
2018-12-03T01:14:13.286Z,1026.03
2018-12-03T01:15:13.913Z,1026.08
2018-12-03T01:16:14.491Z,1026.07
2018-12-03T01:17:15.067Z,1026.02
2018-12-03T01:18:15.716Z,1026.00
2018-12-03T01:19:16.273Z,1026.05
2018-12-03T01:20:16.847Z,1025.94
2018-12-03T01:21:17.424Z,1025.98
2018-12-03T01:22:18.000Z,1025.93
2018-12-03T01:23:18.576Z,1026.02
2018-12-03T01:25:03.666Z,1025.89
2018-12-03T01:26:04.244Z,1025.91
2018-12-03T01:27:04.820Z,1025.91
2018-12-03T01:28:05.448Z,1025.95
2018-12-03T01:29:06.023Z,1025.92
2018-12-03T01:30:06.658Z,1025.92
2018-12-03T01:31:07.226Z,1025.89
2018-12-03T01:32:07.802Z,1025.89
2018-12-03T01:33:08.429Z,1025.89
2018-12-03T01:34:09.005Z,1025.90
2018-12-03T01:35:09.579Z,1025.87
2018-12-03T01:36:10.154Z,1025.85
2018-12-03T01:37:10.726Z,1025.86
2018-12-03T01:38:11.303Z,1025.78
2018-12-03T01:39:11.876Z,1025.75
2018-12-03T01:40:12.452Z,1025.74
2018-12-03T01:41:13.027Z,1025.79
2018-12-03T01:42:13.600Z,1025.71
2018-12-03T01:43:14.176Z,1025.76
2018-12-03T01:44:14.755Z,1025.69
2018-12-03T01:45:15.325Z,1025.66
2018-12-03T01:47:01.262Z,1025.70
2018-12-03T01:48:01.889Z,1025.65
2018-12-03T01:49:02.465Z,1025.69
2018-12-03T01:50:03.042Z,1025.63
2018-12-03T01:51:03.672Z,1025.69
2018-12-03T01:52:04.198Z,1025.71
2018-12-03T01:53:04.777Z,1025.67
2018-12-03T01:54:05.394Z,1025.73
2018-12-03T01:55:05.974Z,1025.68
2018-12-03T01:56:06.545Z,1025.65
2018-12-03T01:57:07.123Z,1025.70
2018-12-03T01:58:07.748Z,1025.69
2018-12-03T01:59:08.322Z,1025.67
2018-12-03T02:00:08.897Z,1025.71
2018-12-03T02:01:09.470Z,1025.68
2018-12-03T02:02:10.046Z,1025.71
2018-12-03T02:03:10.622Z,1025.61
2018-12-03T02:04:11.195Z,1025.67
2018-12-03T02:05:11.771Z,1025.60
2018-12-03T02:06:12.345Z,1025.59
2018-12-03T02:07:12.919Z,1025.66
2018-12-03T02:08:58.108Z,1025.65
2018-12-03T02:09:58.686Z,1025.58
2018-12-03T02:10:59.260Z,1025.54
2018-12-03T02:11:59.836Z,1025.65
2018-12-03T02:13:00.410Z,1025.68
2018-12-03T02:14:00.986Z,1025.71
2018-12-03T02:15:01.610Z,1025.65
2018-12-03T02:16:02.187Z,1025.71
2018-12-03T02:17:02.762Z,1025.71
2018-12-03T02:18:03.340Z,1025.71
2018-12-03T02:19:03.957Z,1025.65
2018-12-03T02:20:04.530Z,1025.65
2018-12-03T02:21:05.107Z,1025.66
2018-12-03T02:22:05.681Z,1025.67
2018-12-03T02:23:06.257Z,1025.68
2018-12-03T02:24:06.833Z,1025.79
2018-12-03T02:25:07.458Z,1025.72
2018-12-03T02:26:08.037Z,1025.73
2018-12-03T02:27:08.610Z,1025.82
2018-12-03T02:28:09.188Z,1025.73
2018-12-03T02:29:09.763Z,1025.81
2018-12-03T02:30:54.901Z,1025.82
2018-12-03T02:31:55.477Z,1025.82
2018-12-03T02:32:56.052Z,1025.89
2018-12-03T02:33:56.628Z,1025.86
2018-12-03T02:34:57.353Z,1025.86
2018-12-03T02:35:57.928Z,1025.86
2018-12-03T02:36:58.503Z,1025.90
2018-12-03T02:37:59.080Z,1025.92
2018-12-03T02:38:59.704Z,1025.92
2018-12-03T02:40:00.282Z,1025.90
2018-12-03T02:41:00.854Z,1025.89
2018-12-03T02:42:01.434Z,1025.93
2018-12-03T02:43:02.048Z,1025.90
2018-12-03T02:44:02.625Z,1025.80
2018-12-03T02:45:03.248Z,1025.92
2018-12-03T02:46:03.826Z,1025.87
2018-12-03T02:47:04.398Z,1025.83
2018-12-03T02:48:05.023Z,1025.81
2018-12-03T02:49:05.598Z,1025.84
2018-12-03T02:50:06.174Z,1025.82
2018-12-03T02:51:06.800Z,1025.82
2018-12-03T02:52:51.887Z,1025.84
2018-12-03T02:53:52.464Z,1025.85
2018-12-03T02:54:53.038Z,1025.84
2018-12-03T02:55:53.614Z,1025.79
2018-12-03T02:56:54.188Z,1025.72
2018-12-03T02:57:54.771Z,1025.81
2018-12-03T02:58:55.384Z,1025.80
2018-12-03T02:59:55.960Z,1025.81
2018-12-03T03:00:56.586Z,1025.83
2018-12-03T03:01:57.158Z,1025.83
2018-12-03T03:02:57.733Z,1025.76
2018-12-03T03:03:58.358Z,1025.71
2018-12-03T03:04:58.934Z,1025.77
2018-12-03T03:05:59.550Z,1025.67
2018-12-03T03:07:00.126Z,1025.70
2018-12-03T03:08:00.700Z,1025.78
2018-12-03T03:09:01.328Z,1025.66
2018-12-03T03:10:01.953Z,1025.64
2018-12-03T03:11:02.537Z,1025.69
2018-12-03T03:12:03.150Z,1025.56
2018-12-03T03:13:03.725Z,1025.69
2018-12-03T03:14:48.814Z,1025.61
2018-12-03T03:15:49.390Z,1025.64
2018-12-03T03:16:49.968Z,1025.66
2018-12-03T03:17:50.542Z,1025.58
2018-12-03T03:18:51.117Z,1025.54
2018-12-03T03:19:51.744Z,1025.57
2018-12-03T03:20:52.317Z,1025.56
2018-12-03T03:21:52.893Z,1025.59
2018-12-03T03:22:53.467Z,1025.50
2018-12-03T03:23:54.042Z,1025.52
2018-12-03T03:24:54.615Z,1025.52
2018-12-03T03:25:55.240Z,1025.49
2018-12-03T03:26:56.215Z,1025.39
2018-12-03T03:27:56.842Z,1025.43
2018-12-03T03:28:57.415Z,1025.43
2018-12-03T03:29:57.993Z,1025.43
2018-12-03T03:30:58.568Z,1025.39
2018-12-03T03:31:59.143Z,1025.42
2018-12-03T03:32:59.717Z,1025.35
2018-12-03T03:34:00.292Z,1025.39
2018-12-03T03:35:00.873Z,1025.34
2018-12-03T03:36:45.997Z,1025.40
2018-12-03T03:37:46.574Z,1025.36
2018-12-03T03:38:47.150Z,1025.36
2018-12-03T03:39:47.785Z,1025.41
2018-12-03T03:40:48.414Z,1025.30
2018-12-03T03:41:48.975Z,1025.33
2018-12-03T03:42:49.595Z,1025.36
2018-12-03T03:43:50.215Z,1025.40
2018-12-03T03:44:50.792Z,1025.34
2018-12-03T03:45:51.366Z,1025.40
2018-12-03T03:46:52.034Z,1025.40
2018-12-03T03:47:52.608Z,1025.36
2018-12-03T03:48:53.182Z,1025.32
2018-12-03T03:49:53.756Z,1025.38
2018-12-03T03:50:54.332Z,1025.23
2018-12-03T03:51:54.904Z,1025.29
2018-12-03T03:52:55.479Z,1025.25
2018-12-03T03:53:56.057Z,1025.20
2018-12-03T03:54:56.629Z,1025.18
2018-12-03T03:55:57.253Z,1025.13
2018-12-03T03:56:57.827Z,1025.20
2018-12-03T03:58:42.921Z,1025.02
2018-12-03T03:59:43.542Z,1025.04
2018-12-03T04:00:44.115Z,1025.04
2018-12-03T04:01:44.691Z,1025.04
2018-12-03T04:02:45.326Z,1025.07
2018-12-03T04:03:45.889Z,1025.18
2018-12-03T04:04:46.465Z,1025.14
2018-12-03T04:05:47.040Z,1025.01
2018-12-03T04:06:47.614Z,1025.02
2018-12-03T04:07:48.188Z,1025.01
2018-12-03T04:08:48.813Z,1025.00
2018-12-03T04:09:49.385Z,1024.95
2018-12-03T04:10:49.964Z,1025.01
2018-12-03T04:11:50.534Z,1024.94
2018-12-03T04:12:51.109Z,1024.92
2018-12-03T04:13:51.734Z,1025.02
2018-12-03T04:14:52.310Z,1025.03
2018-12-03T04:15:52.932Z,1025.04
2018-12-03T04:16:53.509Z,1025.02
2018-12-03T04:17:54.138Z,1025.00
2018-12-03T04:18:54.711Z,1024.99
2018-12-03T04:20:39.844Z,1024.92
2018-12-03T04:21:40.419Z,1024.85
2018-12-03T04:22:41.043Z,1024.88
2018-12-03T04:23:41.619Z,1024.88
2018-12-03T04:24:42.196Z,1024.93
2018-12-03T04:25:42.769Z,1024.90
2018-12-03T04:26:43.343Z,1024.95
2018-12-03T04:27:43.915Z,1024.94
2018-12-03T04:28:44.497Z,1024.89
2018-12-03T04:29:45.155Z,1024.94
2018-12-03T04:30:45.730Z,1024.96
2018-12-03T04:31:46.305Z,1024.96
2018-12-03T04:32:46.887Z,1024.96
2018-12-03T04:33:47.509Z,1024.96
2018-12-03T04:34:48.081Z,1024.98
2018-12-03T04:35:48.655Z,1024.88
2018-12-03T04:36:49.234Z,1024.95
2018-12-03T04:37:49.848Z,1024.96
2018-12-03T04:38:50.425Z,1024.91
2018-12-03T04:39:51.051Z,1024.87
2018-12-03T04:40:51.628Z,1024.90
2018-12-03T04:42:36.714Z,1024.87
2018-12-03T04:43:37.289Z,1024.92
2018-12-03T04:44:37.867Z,1024.86
2018-12-03T04:45:38.441Z,1024.91
2018-12-03T04:46:39.013Z,1024.99
2018-12-03T04:47:39.588Z,1024.97
2018-12-03T04:48:40.164Z,1025.09
2018-12-03T04:49:40.741Z,1025.00
2018-12-03T04:50:41.366Z,1025.01
2018-12-03T04:51:41.941Z,1025.01
2018-12-03T04:52:42.564Z,1024.99
2018-12-03T04:53:43.144Z,1025.11
2018-12-03T04:54:43.719Z,1025.09
2018-12-03T04:55:44.288Z,1025.04
2018-12-03T04:56:44.866Z,1025.06
2018-12-03T04:57:45.444Z,1025.10
2018-12-03T04:58:46.064Z,1024.99
2018-12-03T04:59:46.638Z,1024.99
2018-12-03T05:00:47.214Z,1025.04
2018-12-03T05:01:47.881Z,1024.93
2018-12-03T05:02:48.460Z,1024.90
2018-12-03T05:04:33.547Z,1025.04
2018-12-03T05:05:34.175Z,1025.04
2018-12-03T05:06:34.748Z,1024.96
2018-12-03T05:07:35.323Z,1025.01
2018-12-03T05:08:35.945Z,1025.01
2018-12-03T05:09:36.520Z,1025.01
2018-12-03T05:10:37.094Z,1024.97
2018-12-03T05:11:37.718Z,1025.00
2018-12-03T05:12:38.298Z,1024.91
2018-12-03T05:13:38.873Z,1024.97
2018-12-03T05:14:39.446Z,1024.97
2018-12-03T05:15:40.046Z,1024.91
2018-12-03T05:16:40.641Z,1024.89
2018-12-03T05:17:41.265Z,1024.91
2018-12-03T05:18:41.833Z,1024.91
2018-12-03T05:19:42.457Z,1024.88
2018-12-03T05:20:43.033Z,1024.84
2018-12-03T05:21:43.607Z,1024.89
2018-12-03T05:22:44.288Z,1024.85
2018-12-03T05:23:44.878Z,1024.84
2018-12-03T05:24:45.452Z,1024.80
2018-12-03T05:26:30.541Z,1024.80
2018-12-03T05:27:31.167Z,1024.88
2018-12-03T05:28:31.742Z,1024.86
2018-12-03T05:29:32.319Z,1024.91
2018-12-03T05:30:32.892Z,1024.92
2018-12-03T05:31:33.466Z,1024.86
2018-12-03T05:32:34.041Z,1024.87
2018-12-03T05:33:34.618Z,1024.86
2018-12-03T05:34:35.192Z,1024.86
2018-12-03T05:35:35.766Z,1024.77
2018-12-03T05:36:36.340Z,1024.81
2018-12-03T05:37:36.915Z,1024.71
2018-12-03T05:38:37.489Z,1024.70
2018-12-03T05:39:38.062Z,1024.70
2018-12-03T05:40:38.635Z,1024.68
2018-12-03T05:41:39.210Z,1024.69
2018-12-03T05:42:39.790Z,1024.58
2018-12-03T05:43:40.408Z,1024.63
2018-12-03T05:44:40.984Z,1024.60
2018-12-03T05:45:41.559Z,1024.69
2018-12-03T05:46:42.185Z,1024.60
2018-12-03T05:48:27.324Z,1024.55
2018-12-03T05:49:27.899Z,1024.60
2018-12-03T05:50:28.475Z,1024.57
2018-12-03T05:51:29.051Z,1024.62
2018-12-03T05:52:29.626Z,1024.67
2018-12-03T05:53:30.203Z,1024.64
2018-12-03T05:54:30.779Z,1024.64
2018-12-03T05:55:31.353Z,1024.59
2018-12-03T05:56:31.928Z,1024.61
2018-12-03T05:57:32.501Z,1024.59
2018-12-03T05:58:33.077Z,1024.66
2018-12-03T05:59:33.650Z,1024.70
2018-12-03T06:00:34.273Z,1024.57
2018-12-03T06:01:34.847Z,1024.66
2018-12-03T06:02:35.420Z,1024.60
2018-12-03T06:03:35.996Z,1024.66
2018-12-03T06:04:36.571Z,1024.61
2018-12-03T06:05:37.145Z,1024.66
2018-12-03T06:06:37.776Z,1024.76
2018-12-03T06:07:38.396Z,1024.75
2018-12-03T06:08:39.022Z,1024.75
2018-12-03T06:10:24.110Z,1024.67
2018-12-03T06:11:24.687Z,1024.75
2018-12-03T06:12:25.263Z,1024.73
2018-12-03T06:13:25.840Z,1024.77
2018-12-03T06:14:26.411Z,1024.78
2018-12-03T06:15:26.979Z,1024.78
2018-12-03T06:16:27.547Z,1024.78
2018-12-03T06:17:28.117Z,1024.76
2018-12-03T06:18:28.725Z,1024.80
2018-12-03T06:19:29.292Z,1024.75
2018-12-03T06:20:29.860Z,1024.85
2018-12-03T06:21:30.427Z,1024.83
2018-12-03T06:22:30.996Z,1024.79
2018-12-03T06:23:31.562Z,1024.73
2018-12-03T06:24:32.181Z,1024.76
2018-12-03T06:25:32.751Z,1024.78
2018-12-03T06:26:33.318Z,1024.76
2018-12-03T06:27:33.888Z,1024.81
2018-12-03T06:28:34.462Z,1024.83
2018-12-03T06:29:35.076Z,1024.84
2018-12-03T06:30:35.894Z,1024.81
2018-12-03T06:40:06.299Z,1024.90
2018-12-03T06:41:06.905Z,1024.97
2018-12-03T06:42:07.476Z,1024.94
2018-12-03T07:01:12.874Z,1025.12
2018-12-03T07:33:19.891Z,1025.44
2018-12-03T07:34:20.700Z,1025.40
2018-12-03T07:35:21.271Z,1025.40
2018-12-03T07:37:06.249Z,1025.45
2018-12-03T07:38:06.816Z,1025.39
2018-12-03T07:39:07.385Z,1025.40
2018-12-03T07:40:52.303Z,1025.46
2018-12-03T07:41:52.871Z,1025.49
2018-12-03T07:42:53.444Z,1025.49
2018-12-03T07:44:38.409Z,1025.54
2018-12-03T07:45:38.975Z,1025.50
2018-12-03T07:46:39.545Z,1025.51
2018-12-03T07:48:24.463Z,1025.53
2018-12-03T07:49:25.031Z,1025.57
2018-12-03T07:50:25.601Z,1025.53
2018-12-03T07:52:10.572Z,1025.62
2018-12-03T07:53:11.142Z,1025.61
2018-12-03T07:54:11.760Z,1025.64
2018-12-03T07:55:56.678Z,1025.68
2018-12-03T07:56:57.293Z,1025.68
2018-12-03T07:57:57.861Z,1025.68
2018-12-03T07:59:42.779Z,1025.74
2018-12-03T08:00:43.348Z,1025.79
2018-12-03T08:01:43.967Z,1025.70
2018-12-03T08:03:28.883Z,1025.73
2018-12-03T08:04:29.452Z,1025.73
2018-12-03T08:05:30.025Z,1025.65
2018-12-03T08:07:14.986Z,1025.62
2018-12-03T08:08:15.552Z,1025.58
2018-12-03T08:09:16.173Z,1025.63
2018-12-03T08:11:01.088Z,1025.63
2018-12-03T08:12:01.659Z,1025.65
2018-12-03T08:13:02.229Z,1025.73
2018-12-03T08:14:47.245Z,1025.85
2018-12-03T08:15:47.857Z,1025.77
2018-12-03T08:16:48.426Z,1025.84
2018-12-03T08:18:33.395Z,1025.93
2018-12-03T08:19:33.963Z,1025.93
2018-12-03T08:20:34.533Z,1025.99
2018-12-03T08:22:19.403Z,1025.95
2018-12-03T08:23:19.970Z,1026.02
2018-12-03T08:24:20.538Z,1025.95
2018-12-03T08:26:05.457Z,1025.93
2018-12-03T08:27:06.230Z,1026.00
2018-12-03T08:28:06.796Z,1025.93
2018-12-03T08:29:51.714Z,1025.97
2018-12-03T08:30:52.283Z,1025.99
2018-12-03T08:31:52.853Z,1026.02
2018-12-03T08:33:37.822Z,1025.99
2018-12-03T08:34:38.391Z,1026.04
2018-12-03T08:35:38.961Z,1026.04
2018-12-03T08:37:23.880Z,1026.11
2018-12-03T08:38:24.496Z,1026.07
2018-12-03T08:39:25.067Z,1026.04
2018-12-03T08:41:09.982Z,1026.11
2018-12-03T08:42:10.557Z,1026.08
2018-12-03T08:43:11.120Z,1026.06
2018-12-03T08:44:56.037Z,1026.07
2018-12-03T08:45:56.606Z,1026.07
2018-12-03T08:46:57.378Z,1026.15
2018-12-03T08:48:42.298Z,1026.13
2018-12-03T08:49:42.923Z,1026.15
2018-12-03T08:50:43.529Z,1026.21
2018-12-03T08:52:28.445Z,1026.27
2018-12-03T08:53:34.069Z,1026.25
2018-12-03T08:54:34.636Z,1026.29
2018-12-03T08:56:19.553Z,1026.27
2018-12-03T08:57:20.123Z,1026.21
2018-12-03T08:58:20.695Z,1026.30
2018-12-03T09:00:05.663Z,1026.11
2018-12-03T09:01:06.231Z,1026.07
2018-12-03T09:02:06.806Z,1026.06
2018-12-03T09:03:51.721Z,1025.99
2018-12-03T09:04:52.357Z,1025.99
2018-12-03T09:05:52.911Z,1026.02
2018-12-03T09:07:37.826Z,1026.00
2018-12-03T09:08:38.395Z,1025.98
2018-12-03T09:09:38.965Z,1026.06
2018-12-03T09:11:23.937Z,1026.05
2018-12-03T09:12:24.506Z,1026.13
2018-12-03T09:13:25.076Z,1026.12
2018-12-03T09:15:10.041Z,1026.12
2018-12-03T09:16:10.610Z,1026.21
2018-12-03T09:17:11.181Z,1026.20
2018-12-03T09:18:56.148Z,1026.24
2018-12-03T09:19:56.716Z,1026.14
2018-12-03T09:20:57.285Z,1026.30
2018-12-03T09:22:42.203Z,1026.22
2018-12-03T09:23:42.773Z,1026.22
2018-12-03T09:24:43.393Z,1026.22
2018-12-03T09:26:28.359Z,1026.22
2018-12-03T09:27:28.931Z,1026.19
2018-12-03T09:28:29.549Z,1026.28
2018-12-03T09:30:14.467Z,1026.34
2018-12-03T09:31:15.034Z,1026.29
2018-12-03T09:32:15.605Z,1026.45
2018-12-03T09:34:00.473Z,1026.29
2018-12-03T09:35:01.090Z,1026.37
2018-12-03T09:36:01.661Z,1026.38
2018-12-03T09:37:46.578Z,1026.48
2018-12-03T09:38:47.147Z,1026.38
2018-12-03T09:39:47.721Z,1026.38
2018-12-03T09:41:32.635Z,1026.43
2018-12-03T09:42:33.205Z,1026.32
2018-12-03T09:43:33.826Z,1026.46
2018-12-03T09:45:18.741Z,1026.48
2018-12-03T09:46:19.310Z,1026.53
2018-12-03T09:47:19.882Z,1026.45
2018-12-03T09:49:04.799Z,1026.50
2018-12-03T09:50:05.418Z,1026.58
2018-12-03T09:51:05.988Z,1026.57
2018-12-03T09:52:50.905Z,1026.70
2018-12-03T09:53:51.474Z,1026.60
2018-12-03T09:54:52.045Z,1026.66
2018-12-03T09:56:37.052Z,1026.73
2018-12-03T09:57:37.585Z,1026.73
2018-12-03T09:58:38.154Z,1026.81
2018-12-03T10:00:23.069Z,1026.86
2018-12-03T10:01:23.638Z,1026.80
2018-12-03T10:02:24.209Z,1026.78
2018-12-03T10:04:09.129Z,1026.76
2018-12-03T10:05:09.698Z,1026.79
2018-12-03T10:06:10.267Z,1026.90
2018-12-03T10:07:55.184Z,1026.91
2018-12-03T10:08:55.802Z,1026.93
2018-12-03T10:09:56.371Z,1026.93
2018-12-03T10:11:41.289Z,1026.92
2018-12-03T10:12:41.858Z,1026.96
2018-12-03T10:13:42.428Z,1026.94
2018-12-03T10:15:27.347Z,1026.95
2018-12-03T10:16:27.915Z,1026.98
2018-12-03T10:17:28.538Z,1027.00
2018-12-03T10:19:13.505Z,1027.04
2018-12-03T10:20:14.072Z,1027.07
2018-12-03T10:21:14.649Z,1027.06
2018-12-03T10:22:59.560Z,1027.03
2018-12-03T10:24:00.135Z,1027.04
2018-12-03T10:25:00.743Z,1027.00
2018-12-03T10:26:45.661Z,1027.01
2018-12-03T10:27:46.230Z,1027.10
2018-12-03T10:28:46.850Z,1027.10
2018-12-03T10:30:31.767Z,1027.02
2018-12-03T10:31:32.335Z,1027.08
2018-12-03T10:32:32.906Z,1027.08
2018-12-03T10:34:17.823Z,1026.99
2018-12-03T10:35:18.546Z,1027.12
2018-12-03T10:36:19.110Z,1027.16
2018-12-03T10:38:04.178Z,1027.17
2018-12-03T10:39:04.747Z,1027.11
2018-12-03T10:40:05.314Z,1027.07
2018-12-03T10:41:50.233Z,1027.12
2018-12-03T10:42:50.802Z,1027.12
2018-12-03T10:43:51.415Z,1027.12
2018-12-03T10:45:36.383Z,1027.12
2018-12-03T10:46:37.024Z,1027.13
2018-12-03T10:47:37.565Z,1027.15
2018-12-03T10:49:22.481Z,1027.11
2018-12-03T10:50:23.051Z,1027.09
2018-12-03T10:51:23.621Z,1027.06
2018-12-03T10:53:08.637Z,1027.06
2018-12-03T10:54:09.208Z,1027.04
2018-12-03T10:55:09.777Z,1027.00
2018-12-03T10:56:54.695Z,1026.97
2018-12-03T10:57:55.264Z,1026.99
2018-12-03T10:58:55.885Z,1027.07
2018-12-03T11:00:40.809Z,1027.07
2018-12-03T11:01:41.416Z,1027.04
2018-12-03T11:02:41.986Z,1027.07
2018-12-03T11:04:26.982Z,1027.01
2018-12-03T11:05:27.546Z,1027.05
2018-12-03T11:06:28.116Z,1027.07
2018-12-03T11:08:13.085Z,1027.01
2018-12-03T11:09:13.657Z,1026.97
2018-12-03T11:10:14.228Z,1026.98
2018-12-03T11:11:59.141Z,1027.01
2018-12-03T11:12:59.761Z,1026.99
2018-12-03T11:14:00.380Z,1027.02
2018-12-03T11:15:45.297Z,1027.00
2018-12-03T11:16:45.866Z,1026.94
2018-12-03T11:17:46.486Z,1026.94
2018-12-03T11:22:42.741Z,1026.90
2018-12-03T11:23:43.312Z,1026.88
2018-12-03T11:24:43.922Z,1026.80
2018-12-03T11:26:28.888Z,1026.85
2018-12-03T11:27:29.458Z,1026.83
2018-12-03T11:28:30.028Z,1026.80
2018-12-03T11:30:15.296Z,1026.83
2018-12-03T11:31:15.866Z,1026.85
2018-12-03T11:32:16.434Z,1026.88
2018-12-03T11:34:01.351Z,1026.91
2018-12-03T11:35:05.857Z,1026.88
2018-12-03T11:36:03.481Z,1026.89
2018-12-03T11:37:48.398Z,1026.79
2018-12-03T11:38:48.968Z,1026.82
2018-12-03T11:39:49.588Z,1026.73
2018-12-03T11:41:34.504Z,1026.83
2018-12-03T11:42:35.072Z,1026.75
2018-12-03T11:43:35.693Z,1026.72
2018-12-03T11:45:20.609Z,1026.67
2018-12-03T11:46:21.180Z,1026.60
2018-12-03T11:47:21.751Z,1026.67
2018-12-03T11:49:06.718Z,1026.57
2018-12-03T11:50:07.286Z,1026.57
2018-12-03T11:51:07.857Z,1026.53
2018-12-03T11:52:52.782Z,1026.48
2018-12-03T11:53:53.346Z,1026.49
2018-12-03T11:54:53.925Z,1026.54
2018-12-03T11:56:38.846Z,1026.52
2018-12-03T11:57:39.569Z,1026.49
2018-12-03T11:58:40.142Z,1026.46
2018-12-03T12:00:25.068Z,1026.49
2018-12-03T12:01:25.645Z,1026.37
2018-12-03T12:02:26.215Z,1026.42
2018-12-03T12:04:11.140Z,1026.36
2018-12-03T12:05:11.760Z,1026.39
2018-12-03T12:06:12.334Z,1026.45
2018-12-03T12:07:57.357Z,1026.37
2018-12-03T12:08:57.930Z,1026.41
2018-12-03T12:09:58.506Z,1026.38
2018-12-03T12:11:43.427Z,1026.37
2018-12-03T12:12:44.007Z,1026.31
2018-12-03T12:13:44.578Z,1026.31
2018-12-03T12:15:29.496Z,1026.33
2018-12-03T12:16:30.072Z,1026.35
2018-12-03T12:17:30.646Z,1026.29
2018-12-03T12:19:15.570Z,1026.25
2018-12-03T12:20:16.142Z,1026.29
2018-12-03T12:21:16.717Z,1026.32
2018-12-03T12:23:01.687Z,1026.30
2018-12-03T12:24:02.311Z,1026.24
2018-12-03T12:25:02.885Z,1026.27
2018-12-03T12:26:47.808Z,1026.32
2018-12-03T12:27:48.381Z,1026.33
2018-12-03T12:28:48.956Z,1026.22
2018-12-03T12:30:34.080Z,1026.27
2018-12-03T12:31:34.652Z,1026.28
2018-12-03T12:32:35.281Z,1026.24
2018-12-03T12:34:20.251Z,1026.26
2018-12-03T12:35:20.824Z,1026.28
2018-12-03T12:37:23.226Z,1026.19
2018-12-03T12:39:52.987Z,1026.23
2018-12-03T12:40:53.611Z,1026.20
2018-12-03T12:41:54.185Z,1026.17
2018-12-03T12:43:39.155Z,1026.16
2018-12-03T12:44:39.733Z,1026.21
2018-12-03T12:45:40.307Z,1026.12
2018-12-03T12:47:25.230Z,1026.05
2018-12-03T12:50:38.362Z,1025.88
2018-12-03T12:51:39.026Z,1025.95
2018-12-03T12:52:39.600Z,1025.93
2018-12-03T12:54:24.572Z,1025.91
2018-12-03T12:55:25.146Z,1025.86
2018-12-03T12:56:25.720Z,1025.77
2018-12-03T12:58:10.643Z,1025.88
2018-12-03T12:59:11.215Z,1025.83
2018-12-03T13:00:11.791Z,1025.73
2018-12-03T13:01:56.713Z,1025.71
2018-12-03T13:02:57.286Z,1025.66
2018-12-03T13:03:57.861Z,1025.70
2018-12-03T13:05:42.782Z,1025.64
2018-12-03T13:06:43.356Z,1025.66
2018-12-03T13:12:52.792Z,1025.59
2018-12-03T13:13:53.103Z,1025.56
2018-12-03T13:14:53.723Z,1025.54
2018-12-03T13:16:38.645Z,1025.49
2018-12-03T13:17:39.220Z,1025.50
2018-12-03T13:18:39.791Z,1025.55
2018-12-03T13:20:24.712Z,1025.54
2018-12-03T13:21:25.284Z,1025.56
2018-12-03T13:22:30.315Z,1025.52
2018-12-03T13:45:14.157Z,1025.42
2018-12-03T13:46:14.732Z,1025.40
2018-12-03T13:47:15.315Z,1025.46
2018-12-03T13:49:00.227Z,1025.43
2018-12-03T13:50:00.798Z,1025.38
2018-12-03T13:51:01.372Z,1025.45
2018-12-03T13:52:46.300Z,1025.43
2018-12-03T13:53:46.907Z,1025.42
2018-12-03T13:54:47.481Z,1025.42
2018-12-03T13:56:32.401Z,1025.45
2018-12-03T13:57:32.975Z,1025.38
2018-12-03T13:58:33.552Z,1025.42
2018-12-03T14:00:18.562Z,1025.37
2018-12-03T14:01:19.183Z,1025.39
2018-12-03T14:02:19.808Z,1025.41
2018-12-03T14:04:04.729Z,1025.37
2018-12-03T14:05:05.302Z,1025.36
2018-12-03T14:06:05.927Z,1025.31
2018-12-03T14:07:50.849Z,1025.33
2018-12-03T14:08:51.422Z,1025.41
2018-12-03T14:09:51.993Z,1025.47
2018-12-03T14:11:36.913Z,1025.32
2018-12-03T14:12:37.486Z,1025.38
2018-12-03T14:13:38.059Z,1025.40
2018-12-03T14:15:22.979Z,1025.34
2018-12-03T14:16:23.603Z,1025.32
2018-12-03T14:17:24.176Z,1025.37
2018-12-03T14:19:09.097Z,1025.36
2018-12-03T14:20:09.722Z,1025.30
2018-12-03T14:21:10.295Z,1025.34
2018-12-03T14:22:55.260Z,1025.27
2018-12-03T14:23:55.784Z,1025.30
2018-12-03T14:24:56.359Z,1025.32
2018-12-03T14:26:41.333Z,1025.16
2018-12-03T14:27:41.906Z,1025.32
2018-12-03T14:28:43.491Z,1025.25
2018-12-03T14:30:27.443Z,1025.25
2018-12-03T14:31:28.011Z,1025.25
2018-12-03T14:32:28.585Z,1025.20
2018-12-03T14:34:13.504Z,1025.24
2018-12-03T14:35:14.076Z,1025.21
2018-12-03T14:36:14.656Z,1025.20
2018-12-03T14:37:59.622Z,1025.19
2018-12-03T14:39:00.195Z,1025.21
2018-12-03T14:40:01.170Z,1025.23
2018-12-03T14:41:46.145Z,1025.23
2018-12-03T14:42:46.718Z,1025.18
2018-12-03T14:43:47.341Z,1025.16
2018-12-03T14:45:32.262Z,1025.18
2018-12-03T14:46:32.835Z,1025.25
2018-12-03T14:47:33.416Z,1025.17
2018-12-03T14:49:18.329Z,1025.23
2018-12-03T14:50:19.051Z,1025.22
2018-12-03T14:51:19.624Z,1025.20
2018-12-03T14:53:07.779Z,1025.24
2018-12-03T14:54:06.113Z,1025.21
2018-12-03T14:55:06.836Z,1025.19
2018-12-03T14:56:51.759Z,1025.21
2018-12-03T14:57:52.333Z,1025.15
2018-12-03T14:58:52.957Z,1025.22
2018-12-03T15:00:37.878Z,1025.21
2018-12-03T15:01:38.449Z,1025.20
2018-12-03T15:02:39.024Z,1025.30
2018-12-03T15:04:23.943Z,1025.26
2018-12-03T15:05:24.515Z,1025.27
2018-12-03T15:06:25.090Z,1025.24
2018-12-03T15:08:18.234Z,1025.20
2018-12-03T15:09:18.804Z,1025.23
2018-12-03T15:10:19.381Z,1025.19
2018-12-03T15:12:23.026Z,1025.18
2018-12-03T15:13:23.802Z,1025.18
2018-12-03T15:14:24.371Z,1025.15
2018-12-03T15:16:09.289Z,1025.25
2018-12-03T15:17:09.860Z,1025.23
2018-12-03T15:18:10.434Z,1025.20
2018-12-03T15:19:55.396Z,1025.32
2018-12-03T15:20:56.016Z,1025.24
2018-12-03T15:21:56.587Z,1025.29
2018-12-03T15:23:41.556Z,1025.31
2018-12-03T15:24:42.128Z,1025.31
2018-12-03T15:25:42.702Z,1025.29
2018-12-03T15:27:27.626Z,1025.28
2018-12-03T15:28:28.191Z,1025.25